sensor_id;sensor_type;location;lat;lon;timestamp;pressure;altitude;pressure_sealevel;temperature;humidity
77041;BME280;65974;42.664;23.264;2023-09-19T00:03:15;94793.19;;;15.05;76.14
77041;BME280;65974;42.664;23.264;2023-09-19T00:05:41;94791.28;;;15.02;76.57
77041;BME280;65974;42.664;23.264;2023-09-19T00:08:09;94790.19;;;14.96;77.15
77041;BME280;65974;42.664;23.264;2023-09-19T00:10:35;94799.78;;;14.93;77.04
77041;BME280;65974;42.664;23.264;2023-09-19T00:13:02;94797.16;;;14.86;77.36
77041;BME280;65974;42.664;23.264;2023-09-19T00:15:40;94792.91;;;14.89;77.24
77041;BME280;65974;42.664;23.264;2023-09-19T00:18:07;94794.50;;;14.86;77.06
77041;BME280;65974;42.664;23.264;2023-09-19T00:20:37;94791.00;;;14.89;76.94
77041;BME280;65974;42.664;23.264;2023-09-19T00:23:04;94790.59;;;14.91;76.65
77041;BME280;65974;42.664;23.264;2023-09-19T00:25:35;94781.41;;;14.92;76.61
77041;BME280;65974;42.664;23.264;2023-09-19T00:28:01;94777.19;;;14.91;76.94
77041;BME280;65974;42.664;23.264;2023-09-19T00:30:27;94786.75;;;14.92;76.77
77041;BME280;65974;42.664;23.264;2023-09-19T00:32:52;94779.50;;;14.89;77.02
77041;BME280;65974;42.664;23.264;2023-09-19T00:35:18;94766.09;;;14.89;76.99
77041;BME280;65974;42.664;23.264;2023-09-19T00:37:50;94771.41;;;14.96;77.21
77041;BME280;65974;42.664;23.264;2023-09-19T00:40:16;94766.81;;;14.96;76.81
77041;BME280;65974;42.664;23.264;2023-09-19T00:42:43;94772.16;;;14.96;76.83
77041;BME280;65974;42.664;23.264;2023-09-19T00:45:10;94773.72;;;14.94;76.95
77041;BME280;65974;42.664;23.264;2023-09-19T00:47:44;94776.13;;;14.81;77.54
77041;BME280;65974;42.664;23.264;2023-09-19T00:50:21;94778.16;;;14.66;78.36
77041;BME280;65974;42.664;23.264;2023-09-19T00:52:48;94783.53;;;14.63;78.42
77041;BME280;65974;42.664;23.264;2023-09-19T00:55:16;94780.19;;;14.52;78.53
77041;BME280;65974;42.664;23.264;2023-09-19T00:57:44;94774.88;;;14.45;78.79
77041;BME280;65974;42.664;23.264;2023-09-19T01:00:10;94782.13;;;14.44;79.00
77041;BME280;65974;42.664;23.264;2023-09-19T01:02:41;94778.69;;;14.47;78.89
77041;BME280;65974;42.664;23.264;2023-09-19T01:05:08;94773.28;;;14.51;78.96
77041;BME280;65974;42.664;23.264;2023-09-19T01:07:35;94774.81;;;14.52;78.59
77041;BME280;65974;42.664;23.264;2023-09-19T01:10:05;94774.03;;;14.55;78.37
77041;BME280;65974;42.664;23.264;2023-09-19T01:23:44;94785.28;;;14.25;80.30
77041;BME280;65974;42.664;23.264;2023-09-19T01:26:45;94779.56;;;14.23;80.26
77041;BME280;65974;42.664;23.264;2023-09-19T01:29:39;94780.78;;;14.12;80.64
77041;BME280;65974;42.664;23.264;2023-09-19T01:32:06;94776.59;;;14.07;81.04
77041;BME280;65974;42.664;23.264;2023-09-19T01:34:48;94783.47;;;14.08;80.77
77041;BME280;65974;42.664;23.264;2023-09-19T01:37:18;94783.09;;;14.06;80.73
77041;BME280;65974;42.664;23.264;2023-09-19T01:39:58;94774.28;;;14.06;81.29
77041;BME280;65974;42.664;23.264;2023-09-19T01:42:58;94773.16;;;13.99;81.15
77041;BME280;65974;42.664;23.264;2023-09-19T01:51:09;94780.50;;;13.85;82.00
77041;BME280;65974;42.664;23.264;2023-09-19T01:53:56;94782.81;;;13.83;81.88
77041;BME280;65974;42.664;23.264;2023-09-19T01:56:30;94786.31;;;13.73;81.95
77041;BME280;65974;42.664;23.264;2023-09-19T01:59:06;94786.31;;;13.69;82.33
77041;BME280;65974;42.664;23.264;2023-09-19T02:01:33;94777.91;;;13.71;82.67
77041;BME280;65974;42.664;23.264;2023-09-19T02:04:00;94784.41;;;13.70;82.50
77041;BME280;65974;42.664;23.264;2023-09-19T02:06:26;94784.81;;;13.65;82.32
77041;BME280;65974;42.664;23.264;2023-09-19T02:08:53;94783.66;;;13.62;82.75
77041;BME280;65974;42.664;23.264;2023-09-19T02:11:19;94783.66;;;13.66;82.74
77041;BME280;65974;42.664;23.264;2023-09-19T02:13:44;94781.38;;;13.64;82.74
77041;BME280;65974;42.664;23.264;2023-09-19T02:16:10;94782.13;;;13.68;82.66
77041;BME280;65974;42.664;23.264;2023-09-19T02:18:36;94781.34;;;13.68;82.53
77041;BME280;65974;42.664;23.264;2023-09-19T02:21:02;94779.84;;;13.67;82.27
77041;BME280;65974;42.664;23.264;2023-09-19T02:23:29;94782.13;;;13.65;82.37
77041;BME280;65974;42.664;23.264;2023-09-19T02:25:56;94763.78;;;13.67;82.25
77041;BME280;65974;42.664;23.264;2023-09-19T02:28:29;94770.63;;;13.75;82.44
77041;BME280;65974;42.664;23.264;2023-09-19T02:30:56;94767.16;;;13.74;82.26
77041;BME280;65974;42.664;23.264;2023-09-19T02:33:22;94765.28;;;13.71;82.27
77041;BME280;65974;42.664;23.264;2023-09-19T02:35:47;94762.22;;;13.66;82.11
77041;BME280;65974;42.664;23.264;2023-09-19T02:38:14;94760.31;;;13.70;82.08
77041;BME280;65974;42.664;23.264;2023-09-19T02:40:43;94754.94;;;13.70;82.03
77041;BME280;65974;42.664;23.264;2023-09-19T02:43:09;94751.50;;;13.69;82.28
77041;BME280;65974;42.664;23.264;2023-09-19T02:45:35;94749.22;;;13.68;82.35
77041;BME280;65974;42.664;23.264;2023-09-19T02:48:00;94758.41;;;13.67;82.07
77041;BME280;65974;42.664;23.264;2023-09-19T02:50:29;94747.72;;;13.67;82.05
77041;BME280;65974;42.664;23.264;2023-09-19T02:52:54;94740.81;;;13.73;82.34
77041;BME280;65974;42.664;23.264;2023-09-19T02:55:21;94752.66;;;13.72;82.06
77041;BME280;65974;42.664;23.264;2023-09-19T02:57:51;94746.91;;;13.70;82.00
77041;BME280;65974;42.664;23.264;2023-09-19T03:00:18;94743.09;;;13.67;82.05
77041;BME280;65974;42.664;23.264;2023-09-19T03:02:48;94735.84;;;13.68;82.20
77041;BME280;65974;42.664;23.264;2023-09-19T03:05:13;94732.34;;;13.78;81.92
77041;BME280;65974;42.664;23.264;2023-09-19T03:07:39;94733.91;;;13.75;81.84
77041;BME280;65974;42.664;23.264;2023-09-19T03:10:08;94723.16;;;13.86;81.87
77041;BME280;65974;42.664;23.264;2023-09-19T03:12:33;94726.19;;;13.88;81.23
77041;BME280;65974;42.664;23.264;2023-09-19T03:14:59;94724.66;;;13.87;81.09
77041;BME280;65974;42.664;23.264;2023-09-19T03:17:25;94733.84;;;13.82;81.07
77041;BME280;65974;42.664;23.264;2023-09-19T03:19:50;94734.66;;;13.76;81.66
77041;BME280;65974;42.664;23.264;2023-09-19T03:22:16;94727.03;;;13.67;81.79
77041;BME280;65974;42.664;23.264;2023-09-19T03:24:42;94733.97;;;13.61;81.92
77041;BME280;65974;42.664;23.264;2023-09-19T03:27:12;94732.84;;;13.55;82.06
77041;BME280;65974;42.664;23.264;2023-09-19T03:29:44;94729.41;;;13.51;82.46
77041;BME280;65974;42.664;23.264;2023-09-19T03:32:09;94727.16;;;13.43;82.66
77041;BME280;65974;42.664;23.264;2023-09-19T03:34:38;94735.97;;;13.36;83.00
77041;BME280;65974;42.664;23.264;2023-09-19T03:37:11;94739.03;;;13.35;83.12
77041;BME280;65974;42.664;23.264;2023-09-19T03:39:36;94739.03;;;13.28;83.78
77041;BME280;65974;42.664;23.264;2023-09-19T03:42:02;94744.03;;;13.22;83.77
77041;BME280;65974;42.664;23.264;2023-09-19T03:44:32;94745.56;;;13.12;84.27
77041;BME280;65974;42.664;23.264;2023-09-19T03:46:57;94751.72;;;13.09;84.60
77041;BME280;65974;42.664;23.264;2023-09-19T03:49:23;94749.41;;;13.08;84.83
77041;BME280;65974;42.664;23.264;2023-09-19T03:51:48;94749.41;;;13.08;84.64
77041;BME280;65974;42.664;23.264;2023-09-19T03:54:14;94754.00;;;13.11;84.61
77041;BME280;65974;42.664;23.264;2023-09-19T03:56:39;94753.97;;;13.14;84.40
77041;BME280;65974;42.664;23.264;2023-09-19T03:59:05;94754.75;;;13.15;84.20
77041;BME280;65974;42.664;23.264;2023-09-19T04:01:31;94750.91;;;13.12;84.26
77041;BME280;65974;42.664;23.264;2023-09-19T04:03:57;94748.25;;;13.12;84.21
77041;BME280;65974;42.664;23.264;2023-09-19T04:06:23;94757.44;;;13.11;84.32
77041;BME280;65974;42.664;23.264;2023-09-19T04:08:48;94758.97;;;13.09;84.86
77041;BME280;65974;42.664;23.264;2023-09-19T04:11:14;94761.25;;;13.10;84.67
77041;BME280;65974;42.664;23.264;2023-09-19T04:13:39;94769.66;;;13.05;84.44
77041;BME280;65974;42.664;23.264;2023-09-19T04:16:05;94775.34;;;13.04;84.65
77041;BME280;65974;42.664;23.264;2023-09-19T04:18:32;94767.72;;;13.02;84.71
77041;BME280;65974;42.664;23.264;2023-09-19T04:20:59;94766.22;;;13.08;84.68
77041;BME280;65974;42.664;23.264;2023-09-19T04:23:27;94760.09;;;13.22;84.47
77041;BME280;65974;42.664;23.264;2023-09-19T04:25:53;94756.22;;;13.37;83.93
77041;BME280;65974;42.664;23.264;2023-09-19T04:28:19;94753.16;;;13.46;83.63
77041;BME280;65974;42.664;23.264;2023-09-19T04:30:44;94758.81;;;13.55;83.37
77041;BME280;65974;42.664;23.264;2023-09-19T04:33:09;94755.38;;;13.65;83.18
77041;BME280;65974;42.664;23.264;2023-09-19T04:35:35;94751.88;;;13.75;82.54
77041;BME280;65974;42.664;23.264;2023-09-19T04:38:00;94745.34;;;13.83;82.66
77041;BME280;65974;42.664;23.264;2023-09-19T04:40:26;94743.00;;;13.92;82.57
77041;BME280;65974;42.664;23.264;2023-09-19T04:42:56;94748.34;;;13.99;82.33
77041;BME280;65974;42.664;23.264;2023-09-19T04:45:25;94748.66;;;14.05;82.16
77041;BME280;65974;42.664;23.264;2023-09-19T04:47:51;94745.97;;;14.08;81.98
77041;BME280;65974;42.664;23.264;2023-09-19T04:50:17;94750.91;;;14.13;81.95
77041;BME280;65974;42.664;23.264;2023-09-19T04:52:44;94748.56;;;14.19;81.97
77041;BME280;65974;42.664;23.264;2023-09-19T04:55:14;94745.88;;;14.26;82.08
77041;BME280;65974;42.664;23.264;2023-09-19T04:57:46;94738.91;;;14.39;81.40
77041;BME280;65974;42.664;23.264;2023-09-19T05:00:16;94741.16;;;14.47;81.16
77041;BME280;65974;42.664;23.264;2023-09-19T05:02:44;94741.84;;;14.55;80.76
77041;BME280;65974;42.664;23.264;2023-09-19T05:05:10;94732.22;;;14.61;80.32
77041;BME280;65974;42.664;23.264;2023-09-19T05:07:37;94733.72;;;14.65;80.01
77041;BME280;65974;42.664;23.264;2023-09-19T05:10:03;94735.25;;;14.66;80.02
77041;BME280;65974;42.664;23.264;2023-09-19T05:12:35;94750.94;;;14.68;79.78
77041;BME280;65974;42.664;23.264;2023-09-19T05:15:07;94743.63;;;14.75;79.35
77041;BME280;65974;42.664;23.264;2023-09-19T05:17:34;94739.34;;;14.82;79.17
77041;BME280;65974;42.664;23.264;2023-09-19T05:20:03;94739.31;;;14.85;79.14
77041;BME280;65974;42.664;23.264;2023-09-19T05:22:50;94741.53;;;14.94;78.92
77041;BME280;65974;42.664;23.264;2023-09-19T05:25:15;94742.25;;;15.01;78.78
77041;BME280;65974;42.664;23.264;2023-09-19T05:27:44;94733.34;;;15.08;78.72
77041;BME280;65974;42.664;23.264;2023-09-19T05:30:10;94733.69;;;15.13;78.13
77041;BME280;65974;42.664;23.264;2023-09-19T05:32:35;94734.72;;;15.23;77.90
77041;BME280;65974;42.664;23.264;2023-09-19T05:35:01;94729.66;;;15.32;77.33
77041;BME280;65974;42.664;23.264;2023-09-19T05:37:26;94728.88;;;15.31;76.78
77041;BME280;65974;42.664;23.264;2023-09-19T05:39:52;94722.31;;;15.39;76.50
77041;BME280;65974;42.664;23.264;2023-09-19T05:42:19;94719.97;;;15.41;76.69
77041;BME280;65974;42.664;23.264;2023-09-19T05:44:44;94727.97;;;15.48;76.23
77041;BME280;65974;42.664;23.264;2023-09-19T05:47:09;94726.00;;;15.52;76.23
77041;BME280;65974;42.664;23.264;2023-09-19T05:49:35;94724.44;;;15.55;75.67
77041;BME280;65974;42.664;23.264;2023-09-19T05:52:07;94720.56;;;15.60;75.88
77041;BME280;65974;42.664;23.264;2023-09-19T05:54:33;94723.53;;;15.69;75.48
77041;BME280;65974;42.664;23.264;2023-09-19T05:57:00;94720.41;;;15.74;75.31
77041;BME280;65974;42.664;23.264;2023-09-19T05:59:27;94728.72;;;15.83;74.86
77041;BME280;65974;42.664;23.264;2023-09-19T06:01:52;94716.75;;;15.87;75.29
77041;BME280;65974;42.664;23.264;2023-09-19T06:04:18;94708.69;;;15.87;74.99
77041;BME280;65974;42.664;23.264;2023-09-19T06:06:45;94718.66;;;15.90;75.34
77041;BME280;65974;42.664;23.264;2023-09-19T06:09:10;94717.81;;;15.93;74.80
77041;BME280;65974;42.664;23.264;2023-09-19T06:11:35;94710.94;;;15.92;74.88
77041;BME280;65974;42.664;23.264;2023-09-19T06:14:02;94714.34;;;15.96;74.51
77041;BME280;65974;42.664;23.264;2023-09-19T06:16:28;94716.63;;;15.98;74.49
77041;BME280;65974;42.664;23.264;2023-09-19T06:18:54;94710.47;;;15.97;74.81
77041;BME280;65974;42.664;23.264;2023-09-19T06:21:22;94706.53;;;16.05;73.79
77041;BME280;65974;42.664;23.264;2023-09-19T06:23:47;94701.19;;;16.05;73.94
77041;BME280;65974;42.664;23.264;2023-09-19T06:26:13;94700.34;;;16.08;73.90
77041;BME280;65974;42.664;23.264;2023-09-19T06:28:38;94693.41;;;16.11;73.49
77041;BME280;65974;42.664;23.264;2023-09-19T06:31:03;94696.50;;;16.09;73.54
77041;BME280;65974;42.664;23.264;2023-09-19T06:33:33;94704.09;;;16.14;73.50
77041;BME280;65974;42.664;23.264;2023-09-19T06:35:58;94701.56;;;16.30;72.84
77041;BME280;65974;42.664;23.264;2023-09-19T06:38:25;94698.31;;;16.43;71.80
77041;BME280;65974;42.664;23.264;2023-09-19T06:40:51;94695.13;;;16.51;72.26
77041;BME280;65974;42.664;23.264;2023-09-19T06:43:16;94703.03;;;16.62;71.61
77041;BME280;65974;42.664;23.264;2023-09-19T06:45:42;94701.81;;;16.66;71.64
77041;BME280;65974;42.664;23.264;2023-09-19T06:48:07;94707.00;;;16.77;71.54
77041;BME280;65974;42.664;23.264;2023-09-19T06:50:35;94714.56;;;16.85;71.26
77041;BME280;65974;42.664;23.264;2023-09-19T06:53:01;94712.47;;;16.93;70.13
77041;BME280;65974;42.664;23.264;2023-09-19T06:55:27;94718.09;;;17.02;70.68
77041;BME280;65974;42.664;23.264;2023-09-19T06:57:56;94714.47;;;17.12;70.06
77041;BME280;65974;42.664;23.264;2023-09-19T07:00:21;94715.44;;;17.22;68.61
77041;BME280;65974;42.664;23.264;2023-09-19T07:05:22;94719.59;;;17.26;68.72
77041;BME280;65974;42.664;23.264;2023-09-19T07:07:48;94722.28;;;17.26;69.47
77041;BME280;65974;42.664;23.264;2023-09-19T07:10:13;94714.56;;;17.28;69.53
77041;BME280;65974;42.664;23.264;2023-09-19T07:12:40;94713.75;;;17.31;69.88
77041;BME280;65974;42.664;23.264;2023-09-19T07:15:07;94710.28;;;17.31;69.16
77041;BME280;65974;42.664;23.264;2023-09-19T07:17:32;94720.56;;;17.36;68.44
77041;BME280;65974;42.664;23.264;2023-09-19T07:19:58;94721.63;;;17.42;68.42
77041;BME280;65974;42.664;23.264;2023-09-19T07:22:25;94714.56;;;17.48;68.74
77041;BME280;65974;42.664;23.264;2023-09-19T07:24:51;94716.75;;;17.56;67.84
77041;BME280;65974;42.664;23.264;2023-09-19T07:27:16;94722.88;;;17.57;67.80
77041;BME280;65974;42.664;23.264;2023-09-19T07:30:00;94725.66;;;17.53;67.52
77041;BME280;65974;42.664;23.264;2023-09-19T07:32:26;94724.06;;;17.56;67.72
77041;BME280;65974;42.664;23.264;2023-09-19T07:34:51;94720.56;;;17.59;67.84
77041;BME280;65974;42.664;23.264;2023-09-19T07:37:17;94721.63;;;17.61;67.44
77041;BME280;65974;42.664;23.264;2023-09-19T07:39:42;94714.75;;;17.60;67.39
77041;BME280;65974;42.664;23.264;2023-09-19T07:42:10;94714.31;;;17.62;67.64
77041;BME280;65974;42.664;23.264;2023-09-19T07:47:20;94719.16;;;17.70;67.34
77041;BME280;65974;42.664;23.264;2023-09-19T07:49:47;94721.44;;;17.72;67.26
77041;BME280;65974;42.664;23.264;2023-09-19T07:52:13;94721.38;;;17.75;67.25
77041;BME280;65974;42.664;23.264;2023-09-19T07:54:39;94724.41;;;17.77;67.30
77041;BME280;65974;42.664;23.264;2023-09-19T07:57:08;94720.19;;;17.76;66.45
77041;BME280;65974;42.664;23.264;2023-09-19T07:59:34;94736.28;;;17.80;66.99
77041;BME280;65974;42.664;23.264;2023-09-19T08:01:59;94736.22;;;17.83;66.91
77041;BME280;65974;42.664;23.264;2023-09-19T08:04:26;94727.31;;;17.87;66.35
77041;BME280;65974;42.664;23.264;2023-09-19T08:06:51;94721.16;;;17.86;67.10
77041;BME280;65974;42.664;23.264;2023-09-19T08:09:17;94707.25;;;17.88;66.98
77041;BME280;65974;42.664;23.264;2023-09-19T08:11:47;94708.28;;;17.94;66.79
77041;BME280;65974;42.664;23.264;2023-09-19T08:14:12;94704.09;;;17.93;67.00
77041;BME280;65974;42.664;23.264;2023-09-19T08:16:40;94708.56;;;17.99;66.67
77041;BME280;65974;42.664;23.264;2023-09-19T08:19:05;94705.69;;;18.06;66.64
77041;BME280;65974;42.664;23.264;2023-09-19T08:21:32;94696.31;;;18.14;66.73
77041;BME280;65974;42.664;23.264;2023-09-19T08:23:58;94702.63;;;18.24;66.63
77041;BME280;65974;42.664;23.264;2023-09-19T08:26:23;94691.59;;;18.34;66.73
77041;BME280;65974;42.664;23.264;2023-09-19T08:28:50;94704.03;;;18.48;66.38
77041;BME280;65974;42.664;23.264;2023-09-19T08:31:16;94706.72;;;18.64;65.23
77041;BME280;65974;42.664;23.264;2023-09-19T08:33:42;94710.09;;;18.68;65.25
77041;BME280;65974;42.664;23.264;2023-09-19T08:36:10;94706.91;;;18.73;64.50
77041;BME280;65974;42.664;23.264;2023-09-19T08:38:37;94704.59;;;18.88;64.56
77041;BME280;65974;42.664;23.264;2023-09-19T08:41:07;94702.56;;;18.92;64.35
77041;BME280;65974;42.664;23.264;2023-09-19T08:43:33;94702.41;;;18.99;63.94
77041;BME280;65974;42.664;23.264;2023-09-19T08:48:31;94695.78;;;19.16;64.01
77041;BME280;65974;42.664;23.264;2023-09-19T08:51:02;94691.72;;;19.24;64.00
77041;BME280;65974;42.664;23.264;2023-09-19T08:53:42;94693.81;;;19.32;63.16
77041;BME280;65974;42.664;23.264;2023-09-19T08:56:17;94693.56;;;19.27;62.72
77041;BME280;65974;42.664;23.264;2023-09-19T08:59:04;94686.88;;;19.31;63.54
77041;BME280;65974;42.664;23.264;2023-09-19T09:01:33;94685.94;;;19.38;63.46
77041;BME280;65974;42.664;23.264;2023-09-19T09:03:59;94686.28;;;19.40;63.59
77041;BME280;65974;42.664;23.264;2023-09-19T09:06:26;94682.75;;;19.43;62.19
77041;BME280;65974;42.664;23.264;2023-09-19T09:08:53;94680.59;;;19.51;62.07
77041;BME280;65974;42.664;23.264;2023-09-19T09:11:20;94681.78;;;19.50;61.63
77041;BME280;65974;42.664;23.264;2023-09-19T09:13:46;94683.22;;;19.54;61.52
77041;BME280;65974;42.664;23.264;2023-09-19T09:16:12;94675.00;;;19.58;61.32
77041;BME280;65974;42.664;23.264;2023-09-19T09:18:40;94679.22;;;19.59;61.32
77041;BME280;65974;42.664;23.264;2023-09-19T09:21:06;94670.56;;;19.64;61.28
77041;BME280;65974;42.664;23.264;2023-09-19T09:23:32;94665.19;;;19.76;61.37
77041;BME280;65974;42.664;23.264;2023-09-19T09:25:59;94650.06;;;19.79;60.92
77041;BME280;65974;42.664;23.264;2023-09-19T09:28:29;94663.91;;;19.81;61.13
77041;BME280;65974;42.664;23.264;2023-09-19T09:30:56;94659.38;;;19.78;60.85
77041;BME280;65974;42.664;23.264;2023-09-19T09:33:23;94657.84;;;19.77;60.43
77041;BME280;65974;42.664;23.264;2023-09-19T09:36:00;94656.25;;;19.92;61.41
77041;BME280;65974;42.664;23.264;2023-09-19T09:38:29;94649.75;;;20.02;62.02
77041;BME280;65974;42.664;23.264;2023-09-19T09:40:59;94648.28;;;20.26;59.94
77041;BME280;65974;42.664;23.264;2023-09-19T09:43:36;94641.56;;;20.31;59.50
77041;BME280;65974;42.664;23.264;2023-09-19T09:46:07;94641.56;;;20.43;60.48
77041;BME280;65974;42.664;23.264;2023-09-19T09:52:06;94632.22;;;20.57;59.16
77041;BME280;65974;42.664;23.264;2023-09-19T09:55:02;94630.34;;;20.66;60.07
77041;BME280;65974;42.664;23.264;2023-09-19T09:57:33;94628.28;;;20.70;60.01
77041;BME280;65974;42.664;23.264;2023-09-19T09:59:59;94629.06;;;20.71;58.71
77041;BME280;65974;42.664;23.264;2023-09-19T10:02:41;94633.16;;;20.75;58.67
77041;BME280;65974;42.664;23.264;2023-09-19T10:05:16;94626.22;;;20.74;58.01
77041;BME280;65974;42.664;23.264;2023-09-19T10:08:12;94630.13;;;20.73;58.45
77041;BME280;65974;42.664;23.264;2023-09-19T10:10:39;94624.38;;;20.84;58.96
77041;BME280;65974;42.664;23.264;2023-09-19T10:13:08;94629.84;;;20.93;58.80
77041;BME280;65974;42.664;23.264;2023-09-19T10:15:38;94623.00;;;21.01;58.13
77041;BME280;65974;42.664;23.264;2023-09-19T10:18:06;94622.78;;;20.96;58.90
77041;BME280;65974;42.664;23.264;2023-09-19T10:20:36;94622.16;;;20.92;59.18
77041;BME280;65974;42.664;23.264;2023-09-19T10:23:12;94621.75;;;20.93;59.08
77041;BME280;65974;42.664;23.264;2023-09-19T10:25:42;94629.28;;;20.98;58.53
77041;BME280;65974;42.664;23.264;2023-09-19T10:28:14;94624.00;;;20.95;58.16
77041;BME280;65974;42.664;23.264;2023-09-19T10:30:44;94619.88;;;21.03;58.63
77041;BME280;65974;42.664;23.264;2023-09-19T10:33:14;94621.59;;;21.09;57.83
77041;BME280;65974;42.664;23.264;2023-09-19T10:35:48;94618.13;;;21.09;58.26
77041;BME280;65974;42.664;23.264;2023-09-19T10:38:17;94624.19;;;21.00;57.58
77041;BME280;65974;42.664;23.264;2023-09-19T10:40:44;94619.09;;;21.02;57.51
77041;BME280;65974;42.664;23.264;2023-09-19T10:43:18;94619.31;;;21.08;58.14
77041;BME280;65974;42.664;23.264;2023-09-19T10:45:45;94610.56;;;21.04;57.94
77041;BME280;65974;42.664;23.264;2023-09-19T10:48:12;94609.03;;;21.03;57.49
77041;BME280;65974;42.664;23.264;2023-09-19T10:50:44;94598.72;;;21.10;57.61
77041;BME280;65974;42.664;23.264;2023-09-19T10:53:11;94602.25;;;21.20;57.27
77041;BME280;65974;42.664;23.264;2023-09-19T10:55:37;94600.16;;;21.24;57.39
77041;BME280;65974;42.664;23.264;2023-09-19T10:58:04;94591.22;;;21.36;56.41
77041;BME280;65974;42.664;23.264;2023-09-19T11:00:57;94590.91;;;21.34;56.78
77041;BME280;65974;42.664;23.264;2023-09-19T11:03:28;94602.44;;;21.25;56.44
77041;BME280;65974;42.664;23.264;2023-09-19T11:06:25;94595.38;;;21.28;56.55
77041;BME280;65974;42.664;23.264;2023-09-19T11:08:55;94591.47;;;21.29;56.31
77041;BME280;65974;42.664;23.264;2023-09-19T11:30:50;94583.72;;;21.71;55.45
77041;BME280;65974;42.664;23.264;2023-09-19T11:33:26;94570.94;;;21.71;55.42
77041;BME280;65974;42.664;23.264;2023-09-19T11:43:46;94549.38;;;21.98;55.93
77041;BME280;65974;42.664;23.264;2023-09-19T11:46:12;94552.38;;;22.00;55.13
77041;BME280;65974;42.664;23.264;2023-09-19T11:48:42;94544.53;;;21.93;56.30
77041;BME280;65974;42.664;23.264;2023-09-19T11:53:49;94545.88;;;21.89;55.24
77041;BME280;65974;42.664;23.264;2023-09-19T11:56:19;94550.53;;;21.88;54.87
77041;BME280;65974;42.664;23.264;2023-09-19T11:58:48;94539.13;;;21.93;55.27
77041;BME280;65974;42.664;23.264;2023-09-19T12:01:32;94542.25;;;21.92;56.67
77041;BME280;65974;42.664;23.264;2023-09-19T12:04:00;94543.03;;;21.92;56.53
77041;BME280;65974;42.664;23.264;2023-09-19T12:06:28;94524.34;;;21.94;57.54
77041;BME280;65974;42.664;23.264;2023-09-19T12:08:55;94522.72;;;22.06;55.92
77041;BME280;65974;42.664;23.264;2023-09-19T12:11:23;94520.13;;;22.02;56.35
77041;BME280;65974;42.664;23.264;2023-09-19T12:13:50;94515.75;;;21.96;55.89
77041;BME280;65974;42.664;23.264;2023-09-19T12:16:17;94514.09;;;21.98;55.74
77041;BME280;65974;42.664;23.264;2023-09-19T12:18:47;94508.88;;;22.04;55.91
77041;BME280;65974;42.664;23.264;2023-09-19T12:21:29;94511.00;;;22.18;56.45
77041;BME280;65974;42.664;23.264;2023-09-19T12:24:07;94501.53;;;22.31;55.26
77041;BME280;65974;42.664;23.264;2023-09-19T12:26:45;94504.84;;;22.54;54.64
77041;BME280;65974;42.664;23.264;2023-09-19T12:29:18;94491.88;;;22.49;55.09
77041;BME280;65974;42.664;23.264;2023-09-19T12:31:51;94489.91;;;22.58;55.04
77041;BME280;65974;42.664;23.264;2023-09-19T12:34:20;94483.88;;;22.72;53.91
77041;BME280;65974;42.664;23.264;2023-09-19T12:36:46;94476.81;;;22.75;54.07
77041;BME280;65974;42.664;23.264;2023-09-19T12:39:22;94480.75;;;22.74;55.20
77041;BME280;65974;42.664;23.264;2023-09-19T12:41:48;94490.38;;;22.75;54.91
77041;BME280;65974;42.664;23.264;2023-09-19T12:44:16;94484.06;;;22.78;54.27
77041;BME280;65974;42.664;23.264;2023-09-19T12:46:44;94480.59;;;22.77;53.77
77041;BME280;65974;42.664;23.264;2023-09-19T12:49:19;94484.34;;;22.71;53.83
77041;BME280;65974;42.664;23.264;2023-09-19T12:51:46;94485.41;;;22.73;53.20
77041;BME280;65974;42.664;23.264;2023-09-19T12:54:15;94483.75;;;22.76;52.72
77041;BME280;65974;42.664;23.264;2023-09-19T12:56:43;94480.88;;;22.79;53.31
77041;BME280;65974;42.664;23.264;2023-09-19T12:59:14;94474.69;;;22.88;52.32
77041;BME280;65974;42.664;23.264;2023-09-19T13:01:41;94469.09;;;22.91;52.17
77041;BME280;65974;42.664;23.264;2023-09-19T13:06:45;94467.59;;;22.90;52.53
77041;BME280;65974;42.664;23.264;2023-09-19T13:09:12;94461.84;;;22.97;52.38
77041;BME280;65974;42.664;23.264;2023-09-19T13:11:40;94468.78;;;22.98;51.92
77041;BME280;65974;42.664;23.264;2023-09-19T13:14:24;94465.94;;;22.93;52.37
77041;BME280;65974;42.664;23.264;2023-09-19T13:17:08;94462.88;;;23.00;52.25
77041;BME280;65974;42.664;23.264;2023-09-19T13:25:09;94435.78;;;23.24;52.19
77041;BME280;65974;42.664;23.264;2023-09-19T13:27:47;94440.16;;;23.30;52.52
77041;BME280;65974;42.664;23.264;2023-09-19T13:30:37;94439.69;;;23.41;52.04
77041;BME280;65974;42.664;23.264;2023-09-19T13:33:06;94437.56;;;23.45;51.97
77041;BME280;65974;42.664;23.264;2023-09-19T13:35:33;94440.59;;;23.47;51.79
77041;BME280;65974;42.664;23.264;2023-09-19T13:37:59;94433.53;;;23.40;52.37
77041;BME280;65974;42.664;23.264;2023-09-19T13:40:25;94440.88;;;23.49;52.23
77041;BME280;65974;42.664;23.264;2023-09-19T13:42:55;94437.88;;;23.47;52.79
77041;BME280;65974;42.664;23.264;2023-09-19T13:45:22;94438.50;;;23.42;52.88
77041;BME280;65974;42.664;23.264;2023-09-19T13:47:49;94432.63;;;23.34;52.92
77041;BME280;65974;42.664;23.264;2023-09-19T13:50:15;94431.88;;;23.34;53.75
77041;BME280;65974;42.664;23.264;2023-09-19T13:52:42;94433.22;;;23.29;53.93
77041;BME280;65974;42.664;23.264;2023-09-19T13:55:08;94440.44;;;23.41;52.77
77041;BME280;65974;42.664;23.264;2023-09-19T13:57:33;94433.03;;;23.51;52.93
77041;BME280;65974;42.664;23.264;2023-09-19T13:59:59;94430.09;;;23.63;51.67
77041;BME280;65974;42.664;23.264;2023-09-19T14:02:24;94426.31;;;23.61;52.85
77041;BME280;65974;42.664;23.264;2023-09-19T14:04:51;94426.03;;;23.59;52.12
77041;BME280;65974;42.664;23.264;2023-09-19T14:07:17;94433.38;;;23.67;52.25